createdAt,value
2022-08-18T00:02:25.008Z,26.31
2022-08-18T00:04:57.360Z,26.28
2022-08-18T00:07:31.701Z,26.28
2022-08-18T00:10:00.253Z,26.25
2022-08-18T00:12:47.400Z,26.22
2022-08-18T00:15:17.933Z,26.21
2022-08-18T00:17:45.555Z,26.18
2022-08-18T00:20:21.775Z,26.16
2022-08-18T00:22:49.958Z,26.13
2022-08-18T00:25:19.189Z,26.10
2022-08-18T00:27:46.177Z,26.08
2022-08-18T00:30:18.762Z,26.05
2022-08-18T00:32:51.512Z,26.03
2022-08-18T00:35:37.909Z,25.99
2022-08-18T00:38:08.052Z,25.97
2022-08-18T00:40:54.524Z,25.96
2022-08-18T00:43:48.054Z,25.93
2022-08-18T00:46:36.958Z,25.93
2022-08-18T00:49:05.833Z,25.91
2022-08-18T00:51:46.736Z,25.90
2022-08-18T00:54:23.269Z,25.89
2022-08-18T00:56:58.332Z,25.88
2022-08-18T00:59:50.817Z,25.86
2022-08-18T01:02:24.773Z,25.84
2022-08-18T01:04:56.682Z,25.84
2022-08-18T01:07:45.899Z,25.81
2022-08-18T01:10:16.594Z,25.81
2022-08-18T01:12:46.813Z,25.80
2022-08-18T01:15:29.164Z,25.79
2022-08-18T01:18:34.827Z,25.77
2022-08-18T01:21:34.403Z,25.75
2022-08-18T01:24:05.199Z,25.73
2022-08-18T01:26:37.799Z,25.72
2022-08-18T01:29:18.551Z,25.70
2022-08-18T01:31:55.455Z,25.69
2022-08-18T01:34:27.395Z,25.67
2022-08-18T01:36:55.458Z,25.66
2022-08-18T01:41:25.075Z,25.64
2022-08-18T01:42:11.563Z,25.60
2022-08-18T01:44:41.497Z,25.59
2022-08-18T01:47:11.509Z,25.57
2022-08-18T01:49:43.099Z,25.54
2022-08-18T01:52:17.826Z,25.51
2022-08-18T01:54:44.671Z,25.48
2022-08-18T01:57:14.569Z,25.44
2022-08-18T01:59:43.001Z,25.41
2022-08-18T02:02:18.558Z,25.40
2022-08-18T02:04:47.415Z,25.37
2022-08-18T02:07:14.898Z,25.33
2022-08-18T02:09:43.153Z,25.31
2022-08-18T02:12:11.306Z,25.28
2022-08-18T02:14:39.094Z,25.25
2022-08-18T02:17:09.350Z,25.22
2022-08-18T02:19:40.782Z,25.19
2022-08-18T02:22:09.740Z,25.16
2022-08-18T02:24:37.669Z,25.14
2022-08-18T02:27:05.429Z,25.11
2022-08-18T02:33:38.911Z,24.99
2022-08-18T02:36:14.708Z,24.96
2022-08-18T02:38:42.800Z,24.93
2022-08-18T02:41:12.725Z,24.91
2022-08-18T02:43:41.997Z,24.89
2022-08-18T02:46:09.898Z,24.86
2022-08-18T02:48:36.694Z,24.85
2022-08-18T02:51:16.033Z,24.84
2022-08-18T02:53:46.950Z,24.81
2022-08-18T02:56:40.100Z,24.80
2022-08-18T02:59:14.957Z,24.78
2022-08-18T03:01:46.061Z,24.77
2022-08-18T03:04:17.500Z,24.76
2022-08-18T03:06:45.332Z,24.77
2022-08-18T03:09:16.142Z,24.75
2022-08-18T03:11:43.817Z,24.74
2022-08-18T03:14:11.810Z,24.73
2022-08-18T03:16:45.662Z,24.74
2022-08-18T03:19:31.823Z,24.71
2022-08-18T03:22:02.814Z,24.69
2022-08-18T03:24:32.781Z,24.68
2022-08-18T03:27:01.502Z,24.68
2022-08-18T03:29:32.360Z,24.67
2022-08-18T03:32:01.490Z,24.66
2022-08-18T03:34:28.363Z,24.66
2022-08-18T03:36:55.305Z,24.66
2022-08-18T03:39:25.215Z,24.66
2022-08-18T03:42:01.016Z,24.66
2022-08-18T03:44:38.445Z,24.66
2022-08-18T03:47:11.839Z,24.66
2022-08-18T03:49:39.291Z,24.65
2022-08-18T03:52:09.655Z,24.64
2022-08-18T03:54:38.804Z,24.66
2022-08-18T03:57:09.287Z,24.66
2022-08-18T03:59:36.101Z,24.64
2022-08-18T04:02:05.066Z,24.64
2022-08-18T04:04:32.217Z,24.64
2022-08-18T04:07:06.043Z,24.63
2022-08-18T04:09:35.095Z,24.61
2022-08-18T04:12:15.454Z,24.60
2022-08-18T04:14:48.636Z,24.58
2022-08-18T04:17:23.372Z,24.57
2022-08-18T04:19:52.246Z,24.56
2022-08-18T04:22:19.121Z,24.54
2022-08-18T04:24:46.883Z,24.55
2022-08-18T04:27:13.794Z,24.55
2022-08-18T04:29:40.580Z,24.54
2022-08-18T04:32:07.855Z,24.55
2022-08-18T04:34:35.425Z,24.55
2022-08-18T04:37:02.912Z,24.57
2022-08-18T04:39:30.193Z,24.56
2022-08-18T04:41:57.006Z,24.57
2022-08-18T04:44:23.796Z,24.58
2022-08-18T04:46:53.190Z,24.59
2022-08-18T04:49:25.709Z,24.60
2022-08-18T04:52:36.098Z,24.62
2022-08-18T04:55:01.015Z,24.63
2022-08-18T04:57:29.011Z,24.68
2022-08-18T05:00:00.700Z,24.74
2022-08-18T05:02:28.080Z,24.81
2022-08-18T05:04:55.011Z,24.94
2022-08-18T05:07:25.534Z,25.09
2022-08-18T05:09:54.939Z,25.26
2022-08-18T05:12:25.827Z,25.48
2022-08-18T05:14:54.331Z,25.67
2022-08-18T05:17:21.136Z,25.84
2022-08-18T05:19:49.751Z,26.02
2022-08-18T05:22:19.582Z,26.20
2022-08-18T05:24:54.589Z,26.32
2022-08-18T05:27:21.485Z,26.41
2022-08-18T05:29:51.578Z,26.52
2022-08-18T05:32:38.274Z,26.64
2022-08-18T05:35:14.116Z,26.67
2022-08-18T05:37:59.737Z,26.62
2022-08-18T05:40:26.777Z,26.57
2022-08-18T05:42:57.342Z,26.58
2022-08-18T05:45:24.766Z,26.61
2022-08-18T05:47:51.763Z,26.69
2022-08-18T05:50:20.947Z,26.82
2022-08-18T05:52:59.157Z,26.96
2022-08-18T05:55:56.246Z,27.02
2022-08-18T05:58:33.334Z,27.08
2022-08-18T06:01:14.174Z,27.18
2022-08-18T06:03:48.981Z,27.14
2022-08-18T06:06:22.912Z,27.01
2022-08-18T06:09:03.683Z,26.89
2022-08-18T06:11:30.473Z,26.78
2022-08-18T06:13:59.488Z,26.67
2022-08-18T06:17:04.938Z,26.53
2022-08-18T06:20:04.706Z,26.41
2022-08-18T06:23:18.189Z,26.25
2022-08-18T06:26:19.766Z,26.08
2022-08-18T06:29:16.389Z,25.95
2022-08-18T06:32:05.349Z,25.87
2022-08-18T06:34:43.818Z,25.81
2022-08-18T06:37:18.719Z,25.77
2022-08-18T06:39:52.320Z,25.73
2022-08-18T06:42:30.371Z,25.70
2022-08-18T06:45:12.681Z,25.65
2022-08-18T06:48:05.993Z,25.63
2022-08-18T06:50:54.400Z,25.61
2022-08-18T06:53:28.048Z,25.55
2022-08-18T06:55:55.933Z,25.56
2022-08-18T06:58:30.456Z,25.63
2022-08-18T07:01:01.914Z,25.70
2022-08-18T07:03:43.834Z,25.72
2022-08-18T07:06:23.311Z,25.74
2022-08-18T07:08:55.708Z,25.74
2022-08-18T07:11:34.078Z,25.77
2022-08-18T07:14:22.845Z,25.73
2022-08-18T07:16:59.813Z,25.72
2022-08-18T07:19:30.933Z,25.72
2022-08-18T07:22:07.271Z,25.71
2022-08-18T07:24:44.599Z,25.73
2022-08-18T07:27:19.175Z,25.76
2022-08-18T07:30:25.146Z,25.80
2022-08-18T07:33:21.154Z,25.81
2022-08-18T07:35:59.652Z,25.79
2022-08-18T07:38:45.285Z,25.82
2022-08-18T07:41:20.405Z,25.85
2022-08-18T07:43:52.633Z,25.87
2022-08-18T07:46:45.776Z,25.87
2022-08-18T07:49:22.305Z,25.91
2022-08-18T07:51:57.754Z,25.99
2022-08-18T07:54:54.812Z,26.06
2022-08-18T07:57:46.403Z,26.10
2022-08-18T08:00:57.455Z,26.15
2022-08-18T08:04:25.711Z,26.20
2022-08-18T08:07:24.929Z,26.28
2022-08-18T08:10:22.596Z,26.37
2022-08-18T08:13:31.280Z,26.47
2022-08-18T08:16:22.663Z,26.53
2022-08-18T08:19:59.003Z,26.54
2022-08-18T08:22:41.275Z,26.55
2022-08-18T08:25:46.420Z,26.60
2022-08-18T08:28:51.377Z,26.67
2022-08-18T08:31:59.639Z,26.78
2022-08-18T08:34:53.470Z,26.93
2022-08-18T08:37:33.288Z,27.07
2022-08-18T08:40:13.644Z,27.14
2022-08-18T08:42:55.087Z,27.16
2022-08-18T08:45:32.681Z,27.16
2022-08-18T08:48:14.627Z,27.12
2022-08-18T08:50:57.092Z,27.11
2022-08-18T08:53:38.337Z,27.18
2022-08-18T08:56:15.687Z,27.22
2022-08-18T08:59:01.260Z,27.31
2022-08-18T09:01:32.451Z,27.40
2022-08-18T09:04:28.036Z,27.52
2022-08-18T09:07:23.510Z,27.64
2022-08-18T09:10:30.285Z,27.74
2022-08-18T09:13:34.842Z,27.82
2022-08-18T09:16:38.579Z,27.80
2022-08-18T09:19:31.702Z,27.83
2022-08-18T09:22:36.758Z,27.81
2022-08-18T09:25:39.226Z,27.84
2022-08-18T09:28:39.414Z,27.90
2022-08-18T09:31:07.277Z,27.98
2022-08-18T09:33:44.414Z,28.02
2022-08-18T09:36:45.653Z,27.98
2022-08-18T09:39:58.939Z,27.96
2022-08-18T09:42:51.638Z,27.90
2022-08-18T09:45:33.333Z,27.86
2022-08-18T09:48:12.841Z,27.87
2022-08-18T09:50:57.618Z,27.88
2022-08-18T09:53:45.727Z,27.95
2022-08-18T09:56:15.707Z,27.96
2022-08-18T09:58:55.929Z,27.95
2022-08-18T10:01:34.388Z,27.94
2022-08-18T10:04:15.380Z,27.96
2022-08-18T10:06:48.221Z,28.00
2022-08-18T10:09:36.862Z,28.04
2022-08-18T10:12:27.338Z,28.07
2022-08-18T10:15:32.882Z,28.06
2022-08-18T10:21:31.169Z,28.19
2022-08-18T10:24:32.278Z,28.24
2022-08-18T10:26:54.969Z,28.28
2022-08-18T10:29:25.893Z,28.30
2022-08-18T10:31:56.011Z,28.34
2022-08-18T10:34:51.897Z,28.39
2022-08-18T10:37:38.828Z,28.49
2022-08-18T10:40:14.226Z,28.55
2022-08-18T10:42:53.143Z,28.51
2022-08-18T10:45:30.082Z,28.54
2022-08-18T10:48:31.840Z,28.58
2022-08-18T10:54:18.793Z,28.61
2022-08-18T10:57:08.564Z,28.64
2022-08-18T10:59:57.692Z,28.69
2022-08-18T11:02:43.996Z,28.74
2022-08-18T11:05:17.108Z,28.82
2022-08-18T11:07:52.102Z,28.84
2022-08-18T11:10:57.739Z,28.84
2022-08-18T11:13:58.495Z,28.85
2022-08-18T11:17:07.038Z,28.92
2022-08-18T11:19:43.268Z,28.99
2022-08-18T11:22:31.482Z,29.05
2022-08-18T11:25:01.081Z,29.08
2022-08-18T11:27:37.476Z,29.16
2022-08-18T11:30:09.872Z,29.20
2022-08-18T11:32:42.659Z,29.23
2022-08-18T11:35:27.644Z,29.27
2022-08-18T11:38:04.026Z,29.32
2022-08-18T11:41:10.819Z,29.36
2022-08-18T11:43:30.016Z,29.38
2022-08-18T11:46:37.083Z,29.41
2022-08-18T11:49:26.317Z,29.45
2022-08-18T11:52:03.223Z,29.55
2022-08-18T11:57:54.365Z,29.90
2022-08-18T12:00:46.477Z,30.11
2022-08-18T12:03:31.686Z,30.27
2022-08-18T12:06:26.640Z,30.47
2022-08-18T12:09:06.476Z,30.57
2022-08-18T12:11:41.285Z,30.66
2022-08-18T12:14:31.271Z,30.76
2022-08-18T12:17:01.689Z,30.73
2022-08-18T12:19:31.086Z,30.69
2022-08-18T12:22:01.998Z,30.65
2022-08-18T12:24:39.201Z,30.71
2022-08-18T12:27:20.402Z,30.78
2022-08-18T12:29:48.147Z,30.85
2022-08-18T12:32:18.208Z,30.90
2022-08-18T12:37:59.571Z,31.06
2022-08-18T12:40:27.569Z,31.12
2022-08-18T12:42:56.056Z,31.20
2022-08-18T12:48:11.841Z,31.16
2022-08-18T12:50:50.019Z,31.10
2022-08-18T12:53:30.088Z,31.04
2022-08-18T12:56:24.865Z,30.97
2022-08-18T12:58:52.920Z,30.93
2022-08-18T13:01:21.582Z,30.94
2022-08-18T13:04:11.416Z,30.93
2022-08-18T13:07:00.140Z,30.95
2022-08-18T13:09:35.015Z,30.97
2022-08-18T13:12:14.793Z,31.03
2022-08-18T13:14:43.495Z,31.11
2022-08-18T13:17:30.298Z,31.15
2022-08-18T13:19:59.420Z,31.17
2022-08-18T13:22:32.019Z,31.23
2022-08-18T13:25:03.665Z,31.29
2022-08-18T13:27:33.639Z,31.34
2022-08-18T13:30:30.387Z,31.40
2022-08-18T13:33:02.690Z,31.42
2022-08-18T13:35:37.962Z,31.43
2022-08-18T13:38:22.094Z,31.43
2022-08-18T13:40:57.534Z,31.43
2022-08-18T13:43:39.393Z,31.39
2022-08-18T13:46:09.181Z,31.35
2022-08-18T13:48:37.731Z,31.29
2022-08-18T13:51:08.266Z,31.24
2022-08-18T13:53:50.460Z,31.23
2022-08-18T13:56:31.446Z,31.17
2022-08-18T13:58:58.822Z,31.15
2022-08-18T14:01:45.045Z,31.11
2022-08-18T14:04:15.017Z,31.09
2022-08-18T14:06:56.289Z,31.05
2022-08-18T14:09:27.722Z,31.02
2022-08-18T14:12:15.901Z,30.99
2022-08-18T14:14:53.248Z,30.93
2022-08-18T14:17:22.723Z,30.89
2022-08-18T14:20:15.281Z,30.87
2022-08-18T14:23:21.506Z,30.87
2022-08-18T14:26:08.544Z,30.84
2022-08-18T14:28:35.488Z,30.83
2022-08-18T14:31:07.036Z,30.84
2022-08-18T14:33:50.496Z,30.83
2022-08-18T14:36:20.155Z,30.83
2022-08-18T14:38:58.640Z,30.82
2022-08-18T14:41:27.198Z,30.81
2022-08-18T14:44:12.198Z,30.81
2022-08-18T14:46:40.817Z,30.79
2022-08-18T14:49:08.030Z,30.73
2022-08-18T14:51:35.344Z,30.66
2022-08-18T14:54:02.303Z,30.60
2022-08-18T14:56:29.433Z,30.50
2022-08-18T14:58:56.907Z,30.43
2022-08-18T15:01:24.708Z,30.32
2022-08-18T15:03:54.376Z,30.12
2022-08-18T15:06:26.993Z,29.82
2022-08-18T15:08:57.108Z,29.57
2022-08-18T15:11:24.973Z,29.31
2022-08-18T15:13:55.151Z,29.10
2022-08-18T15:16:27.162Z,28.84
2022-08-18T15:18:59.281Z,28.63
2022-08-18T15:21:47.825Z,28.45
2022-08-18T15:24:39.696Z,28.33
2022-08-18T15:27:10.428Z,28.28
2022-08-18T15:29:41.374Z,28.26
2022-08-18T15:32:10.233Z,28.24
2022-08-18T15:34:47.330Z,28.21
2022-08-18T15:37:20.403Z,28.19
2022-08-18T15:40:02.562Z,28.17
2022-08-18T15:42:29.839Z,28.20
2022-08-18T15:44:56.834Z,28.22
2022-08-18T15:47:25.130Z,28.26
2022-08-18T15:49:52.456Z,28.29
2022-08-18T15:52:24.473Z,28.34
2022-08-18T15:54:57.008Z,28.43
2022-08-18T15:57:39.656Z,28.52
2022-08-18T16:00:08.453Z,28.60
2022-08-18T16:02:41.058Z,28.61
2022-08-18T16:05:14.150Z,28.62
2022-08-18T16:07:45.246Z,28.66
2022-08-18T16:10:14.604Z,28.72
2022-08-18T16:12:45.766Z,28.80
2022-08-18T16:15:19.134Z,28.85
2022-08-18T16:17:47.725Z,28.92
2022-08-18T16:20:14.804Z,28.97
2022-08-18T16:22:41.688Z,29.00
2022-08-18T16:25:09.332Z,29.04
2022-08-18T16:27:41.040Z,29.07
2022-08-18T16:30:18.536Z,29.10
2022-08-18T16:32:47.131Z,29.10
2022-08-18T16:35:15.388Z,29.10
2022-08-18T16:37:43.103Z,29.10
2022-08-18T16:40:10.925Z,29.07
2022-08-18T16:42:37.857Z,29.08
2022-08-18T16:45:06.313Z,29.07
2022-08-18T16:47:38.801Z,29.07
2022-08-18T16:50:12.461Z,29.07
2022-08-18T16:52:40.084Z,29.06
2022-08-18T16:55:09.738Z,29.06
2022-08-18T16:57:58.896Z,29.04
2022-08-18T17:00:45.127Z,29.00
2022-08-18T17:03:30.844Z,28.97
2022-08-18T17:06:03.300Z,28.95
2022-08-18T17:08:34.127Z,28.92
2022-08-18T17:11:09.290Z,28.92
2022-08-18T17:13:37.783Z,28.91
2022-08-18T17:16:05.130Z,28.90
2022-08-18T17:18:32.218Z,28.90
2022-08-18T17:21:06.953Z,28.88
2022-08-18T17:23:34.608Z,28.87
2022-08-18T17:26:16.437Z,28.86
2022-08-18T17:28:52.558Z,28.85
2022-08-18T17:31:24.570Z,28.82
2022-08-18T17:33:57.701Z,28.80
2022-08-18T17:36:53.062Z,28.76
2022-08-18T17:39:26.314Z,28.76
2022-08-18T17:42:11.666Z,28.75
2022-08-18T17:44:52.149Z,28.73
2022-08-18T17:47:27.030Z,28.74
2022-08-18T17:50:27.985Z,28.64
2022-08-18T17:53:05.615Z,28.66
2022-08-18T17:55:49.705Z,28.67
2022-08-18T17:58:42.546Z,28.67
2022-08-18T18:01:12.570Z,28.65
2022-08-18T18:03:40.859Z,28.66
2022-08-18T18:06:18.159Z,28.65
2022-08-18T18:08:54.526Z,28.65
2022-08-18T18:11:31.358Z,28.63
2022-08-18T18:14:01.206Z,28.61
2022-08-18T18:16:35.402Z,28.61
2022-08-18T18:19:07.775Z,28.53
2022-08-18T18:21:55.272Z,28.55
2022-08-18T18:24:33.441Z,28.54
2022-08-18T18:27:00.718Z,28.53
2022-08-18T18:29:35.927Z,28.54
2022-08-18T18:32:48.304Z,28.53
2022-08-18T18:35:53.118Z,28.51
2022-08-18T18:38:31.943Z,28.49
2022-08-18T18:41:06.696Z,28.48
2022-08-18T18:43:41.090Z,28.47
2022-08-18T18:46:30.186Z,28.38
2022-08-18T18:49:20.706Z,28.38
2022-08-18T18:52:07.500Z,28.36
2022-08-18T18:55:06.047Z,28.31
2022-08-18T18:57:51.795Z,28.29
2022-08-18T19:00:40.533Z,28.29
2022-08-18T19:03:14.693Z,28.26
2022-08-18T19:06:15.281Z,28.23
2022-08-18T19:09:04.845Z,28.22
2022-08-18T19:12:07.108Z,28.20
2022-08-18T19:14:40.975Z,28.18
2022-08-18T19:17:13.478Z,28.17
2022-08-18T19:19:55.361Z,28.15
2022-08-18T19:22:54.691Z,28.11
2022-08-18T19:25:25.721Z,28.09
2022-08-18T19:28:07.930Z,28.06
2022-08-18T19:30:40.494Z,28.05
2022-08-18T19:33:11.427Z,28.03
2022-08-18T19:35:59.088Z,28.01
2022-08-18T19:38:42.817Z,27.99
2022-08-18T19:41:39.170Z,27.94
2022-08-18T19:44:30.200Z,27.93
2022-08-18T19:47:30.573Z,27.89
2022-08-18T19:50:21.460Z,27.88
2022-08-18T19:53:09.473Z,27.86
2022-08-18T19:55:51.138Z,27.85
2022-08-18T19:58:37.342Z,27.82
2022-08-18T20:01:47.121Z,27.79
2022-08-18T20:05:03.513Z,27.72
2022-08-18T20:08:09.235Z,27.65
2022-08-18T20:11:41.183Z,27.60
2022-08-18T20:14:13.226Z,27.55
2022-08-18T20:16:44.670Z,27.53
2022-08-18T20:19:42.901Z,27.49
2022-08-18T20:22:36.347Z,27.47
2022-08-18T20:25:42.582Z,27.43
2022-08-18T20:28:21.653Z,27.42
2022-08-18T20:31:12.748Z,27.37
2022-08-18T20:34:14.076Z,27.34
2022-08-18T20:36:43.250Z,27.32
2022-08-18T20:39:54.398Z,27.28
2022-08-18T20:42:21.113Z,27.27
2022-08-18T20:44:51.648Z,27.24
2022-08-18T20:47:45.691Z,27.21
2022-08-18T20:50:51.319Z,27.14
2022-08-18T20:53:56.177Z,27.09
2022-08-18T20:56:43.437Z,27.07
2022-08-18T20:59:39.339Z,27.03
2022-08-18T21:02:38.416Z,27.04
2022-08-18T21:05:08.933Z,27.02
2022-08-18T21:08:17.088Z,27.01
2022-08-18T21:10:49.135Z,26.99
2022-08-18T21:13:41.433Z,26.96
2022-08-18T21:16:11.550Z,26.94
2022-08-18T21:18:48.622Z,26.91
2022-08-18T21:21:30.490Z,26.89
2022-08-18T21:24:02.713Z,26.86
2022-08-18T21:26:33.059Z,26.84
2022-08-18T21:29:12.377Z,26.81
2022-08-18T21:31:45.121Z,26.81
2022-08-18T21:34:33.363Z,26.77
2022-08-18T21:37:06.345Z,26.73
2022-08-18T21:39:34.882Z,26.70
2022-08-18T21:42:02.320Z,26.68
2022-08-18T21:44:41.640Z,26.67
2022-08-18T21:47:17.341Z,26.67
2022-08-18T21:50:00.132Z,26.65
2022-08-18T21:52:30.840Z,26.64
2022-08-18T21:55:05.645Z,26.63
2022-08-18T21:58:17.876Z,26.58
2022-08-18T22:01:24.852Z,26.55
2022-08-18T22:03:58.265Z,26.51
2022-08-18T22:06:33.746Z,26.48
2022-08-18T22:09:37.723Z,26.44
2022-08-18T22:12:51.812Z,26.40
2022-08-18T22:15:26.419Z,26.39
2022-08-18T22:18:00.535Z,26.38
2022-08-18T22:20:48.342Z,26.39
2022-08-18T22:23:33.387Z,26.36
2022-08-18T22:26:25.369Z,26.33
2022-08-18T22:29:10.078Z,26.33
2022-08-18T22:31:43.259Z,26.26
2022-08-18T22:34:28.946Z,26.32
2022-08-18T22:37:09.809Z,26.28
2022-08-18T22:39:55.158Z,26.28
2022-08-18T22:42:30.308Z,26.28
2022-08-18T22:45:00.204Z,26.27
2022-08-18T22:47:30.104Z,26.27
2022-08-18T22:50:01.621Z,26.25
2022-08-18T22:52:37.423Z,26.24
2022-08-18T22:55:09.582Z,26.20
2022-08-18T22:57:38.887Z,26.20
2022-08-18T23:00:11.921Z,26.20
2022-08-18T23:02:39.028Z,26.21
2022-08-18T23:05:06.904Z,26.23
2022-08-18T23:07:34.105Z,26.23
2022-08-18T23:10:01.026Z,26.20
2022-08-18T23:12:27.851Z,26.18
2022-08-18T23:14:54.906Z,26.15
2022-08-18T23:17:21.936Z,26.12
2022-08-18T23:19:52.278Z,26.07
2022-08-18T23:22:19.401Z,26.04
2022-08-18T23:24:46.235Z,25.99
2022-08-18T23:27:13.122Z,25.94
2022-08-18T23:29:41.186Z,25.91
2022-08-18T23:32:08.164Z,25.84
2022-08-18T23:34:36.576Z,25.80
2022-08-18T23:37:05.027Z,25.77
2022-08-18T23:39:34.597Z,25.76
2022-08-18T23:42:03.748Z,25.74
2022-08-18T23:44:31.015Z,25.75
2022-08-18T23:46:59.812Z,25.76
2022-08-18T23:49:28.528Z,25.75
2022-08-18T23:51:56.089Z,25.77
2022-08-18T23:54:31.623Z,25.80
2022-08-18T23:56:58.771Z,25.81
2022-08-18T23:59:27.582Z,25.83
